Time;durP1;ratioP1;P1;durP2;ratioP2;P2;SDS_P1;SDS_P2;PMS_P1;PMS_P2;Temp;Humidity;BMP_temperature;BMP_pressure;BME280_temperature;BME280_humidity;BME280_pressure;Samples;Min_cycle;Max_cycle;Signal;HPM_P1;HPM_P2
2023/06/30 00:01:48;;;;;;;8.47;7.67;;;23.70;75.00;;;;;;4971884;28;20527;-82
2023/06/30 00:04:17;;;;;;;8.73;7.10;;;23.60;75.10;;;;;;4971197;28;20490;-81
2023/06/30 00:06:49;;;;;;;7.73;7.13;;;23.70;74.80;;;;;;4956276;28;20819;-81
2023/06/30 00:09:19;;;;;;;8.27;7.57;;;23.80;74.40;;;;;;4968813;28;20451;-81
2023/06/30 00:11:50;;;;;;;8.87;8.07;;;23.90;74.20;;;;;;4972353;28;20866;-81
2023/06/30 00:14:19;;;;;;;9.47;8.60;;;23.70;74.60;;;;;;4972031;28;20456;-81
2023/06/30 00:16:47;;;;;;;8.20;7.30;;;23.70;74.80;;;;;;4970546;28;20980;-81
2023/06/30 00:19:16;;;;;;;9.00;8.20;;;23.70;74.90;;;;;;4968504;28;20475;-81
2023/06/30 00:21:44;;;;;;;9.77;8.23;;;23.60;75.10;;;;;;4969807;28;20510;-81
2023/06/30 00:24:14;;;;;;;7.77;7.17;;;23.50;75.20;;;;;;4969356;28;20528;-81
2023/06/30 00:26:42;;;;;;;9.03;8.23;;;23.50;75.50;;;;;;4965508;28;20497;-81
2023/06/30 00:29:12;;;;;;;9.20;8.30;;;23.40;75.90;;;;;;4969636;28;20477;-81
2023/06/30 00:31:40;;;;;;;10.43;9.40;;;23.30;76.10;;;;;;4954573;28;21465;-82
2023/06/30 00:34:08;;;;;;;9.63;8.63;;;23.20;76.40;;;;;;4968428;28;20495;-81
2023/06/30 00:36:38;;;;;;;9.30;8.40;;;23.10;76.60;;;;;;4952840;28;20890;-81
2023/06/30 00:39:06;;;;;;;8.77;8.07;;;23.10;76.60;;;;;;4966755;28;20463;-81
2023/06/30 00:41:36;;;;;;;8.70;7.90;;;23.20;76.30;;;;;;4955012;28;20470;-83
2023/06/30 00:44:05;;;;;;;8.03;7.23;;;23.20;76.30;;;;;;4968904;28;20458;-81
2023/06/30 00:46:33;;;;;;;11.13;9.07;;;23.30;76.00;;;;;;4968617;28;20465;-81
2023/06/30 00:49:02;;;;;;;8.60;7.80;;;23.40;75.70;;;;;;4959976;28;20812;-81
2023/06/30 00:51:30;;;;;;;10.97;10.00;;;23.40;75.70;;;;;;4971343;28;20485;-83
2023/06/30 00:53:59;;;;;;;9.97;8.90;;;23.40;75.80;;;;;;4972870;28;20464;-81
2023/06/30 00:56:27;;;;;;;10.47;9.47;;;23.40;75.60;;;;;;4973156;28;20610;-81
2023/06/30 00:58:57;;;;;;;9.17;8.27;;;23.40;75.90;;;;;;4955492;28;21010;-81
2023/06/30 01:01:32;;;;;;;10.20;9.13;;;23.40;75.90;;;;;;4969307;28;21071;-81
2023/06/30 01:04:06;;;;;;;10.60;9.40;;;23.30;76.10;;;;;;4968926;28;20471;-81
2023/06/30 01:06:40;;;;;;;10.50;9.50;;;23.30;76.00;;;;;;4954010;29;20456;-82
2023/06/30 01:09:14;;;;;;;11.13;10.03;;;23.30;76.20;;;;;;4954257;28;20497;-81
2023/06/30 01:11:43;;;;;;;9.40;8.57;;;23.30;76.20;;;;;;4971143;28;20454;-81
2023/06/30 01:14:13;;;;;;;11.87;10.13;;;23.30;76.10;;;;;;4951648;28;20477;-81
2023/06/30 01:16:44;;;;;;;11.33;9.77;;;23.30;76.20;;;;;;4951478;29;20482;-81
2023/06/30 01:19:24;;;;;;;11.00;9.90;;;23.20;76.40;;;;;;4967073;28;20448;-81
2023/06/30 01:21:56;;;;;;;10.63;9.40;;;23.20;76.40;;;;;;4954518;28;20471;-81
2023/06/30 01:24:28;;;;;;;11.90;10.60;;;23.20;76.50;;;;;;4954593;28;20457;-81
2023/06/30 01:26:56;;;;;;;17.20;9.73;;;23.10;76.70;;;;;;4963820;28;20504;-81
2023/06/30 01:29:26;;;;;;;14.80;10.37;;;23.10;76.70;;;;;;4973051;28;20450;-81
2023/06/30 01:31:54;;;;;;;10.10;9.23;;;23.10;77.00;;;;;;4971163;28;20517;-81
2023/06/30 01:34:23;;;;;;;11.50;10.50;;;22.90;77.40;;;;;;4952741;28;20546;-83
2023/06/30 01:36:51;;;;;;;9.97;9.07;;;22.90;77.40;;;;;;4953647;28;20479;-81
2023/06/30 01:39:20;;;;;;;10.33;9.33;;;22.90;77.40;;;;;;4969518;28;20472;-82
2023/06/30 01:41:48;;;;;;;11.13;10.07;;;22.90;77.40;;;;;;4969661;28;20502;-81
2023/06/30 01:44:16;;;;;;;10.80;9.60;;;22.90;77.40;;;;;;4970460;28;20469;-81
2023/06/30 01:46:46;;;;;;;10.13;9.23;;;22.80;77.60;;;;;;4954565;28;20464;-81
2023/06/30 01:49:15;;;;;;;10.13;9.13;;;22.80;77.80;;;;;;4972523;28;20805;-81
2023/06/30 01:51:43;;;;;;;12.90;10.60;;;22.80;77.80;;;;;;4961727;28;20542;-81
2023/06/30 01:54:13;;;;;;;11.77;10.57;;;22.80;77.70;;;;;;4950620;28;20901;-81
2023/06/30 01:56:48;;;;;;;12.27;11.07;;;22.80;77.90;;;;;;4968324;28;20818;-81
2023/06/30 01:59:17;;;;;;;11.23;10.13;;;22.80;78.10;;;;;;4975719;28;20472;-81
2023/06/30 02:01:47;;;;;;;11.00;9.80;;;22.80;77.90;;;;;;4958812;28;20470;-81
2023/06/30 02:04:15;;;;;;;11.00;10.03;;;22.70;78.00;;;;;;4975050;28;20458;-81
2023/06/30 02:06:47;;;;;;;11.00;9.97;;;22.70;78.00;;;;;;4968417;28;20483;-82
2023/06/30 02:09:16;;;;;;;12.30;11.10;;;22.60;78.20;;;;;;4981618;28;20460;-81
2023/06/30 02:11:44;;;;;;;11.80;10.67;;;22.50;78.30;;;;;;4980250;28;20901;-82
2023/06/30 02:14:16;;;;;;;12.03;11.00;;;22.50;78.50;;;;;;4973582;28;20470;-81
2023/06/30 02:16:46;;;;;;;10.93;9.83;;;22.50;78.60;;;;;;4971869;28;20533;-81
2023/06/30 02:19:14;;;;;;;15.37;11.40;;;22.60;78.60;;;;;;4976189;28;20445;-81
2023/06/30 02:21:42;;;;;;;14.30;13.00;;;22.70;78.40;;;;;;4964451;28;20477;-81
2023/06/30 02:24:11;;;;;;;13.17;11.63;;;22.80;78.40;;;;;;4975164;28;20456;-81
2023/06/30 02:26:40;;;;;;;12.53;11.17;;;22.80;78.40;;;;;;4957160;28;20468;-81
2023/06/30 02:29:08;;;;;;;13.07;11.87;;;22.80;78.30;;;;;;4975213;28;20904;-81
2023/06/30 02:31:36;;;;;;;13.73;12.30;;;22.80;78.50;;;;;;4959630;28;20983;-81
2023/06/30 02:34:06;;;;;;;13.90;11.63;;;22.90;78.20;;;;;;4974799;28;20566;-82
2023/06/30 02:36:34;;;;;;;12.60;11.30;;;22.80;78.30;;;;;;4968781;28;20484;-82
2023/06/30 02:39:02;;;;;;;12.90;11.67;;;22.80;78.50;;;;;;4975278;28;20439;-83
2023/06/30 02:41:30;;;;;;;12.33;11.17;;;22.70;78.70;;;;;;4972707;28;20466;-81
2023/06/30 02:43:58;;;;;;;12.37;11.27;;;22.70;78.80;;;;;;4974601;28;20458;-81
2023/06/30 02:46:27;;;;;;;13.37;12.10;;;22.60;78.90;;;;;;4974435;28;20465;-82
2023/06/30 02:48:55;;;;;;;15.33;12.73;;;22.60;79.10;;;;;;4958318;28;20502;-81
2023/06/30 02:51:24;;;;;;;12.47;11.27;;;22.50;79.20;;;;;;4962977;28;20454;-81
2023/06/30 02:53:53;;;;;;;13.63;12.33;;;22.60;79.20;;;;;;4974623;28;20628;-81
2023/06/30 02:56:21;;;;;;;13.23;12.00;;;22.50;79.40;;;;;;4957431;28;20528;-82
2023/06/30 02:58:51;;;;;;;15.40;13.90;;;22.50;79.50;;;;;;4957195;28;20472;-82
2023/06/30 03:01:21;;;;;;;14.63;12.90;;;22.40;79.90;;;;;;4962561;28;20445;-81
2023/06/30 03:03:50;;;;;;;14.60;11.57;;;22.20;80.40;;;;;;4946903;28;20464;-81
2023/06/30 03:06:20;;;;;;;12.73;11.53;;;22.10;80.40;;;;;;4970410;28;20965;-81
2023/06/30 03:08:49;;;;;;;11.70;10.50;;;22.10;80.50;;;;;;4959895;28;20601;-81
2023/06/30 03:11:18;;;;;;;13.70;11.10;;;22.10;80.40;;;;;;4957813;28;20601;-82
2023/06/30 03:13:46;;;;;;;12.57;10.63;;;22.20;80.20;;;;;;4954776;28;20469;-81
2023/06/30 03:16:15;;;;;;;13.30;10.90;;;22.30;80.10;;;;;;4957075;28;20861;-81
2023/06/30 03:18:43;;;;;;;13.00;11.33;;;22.30;79.90;;;;;;4974316;28;20472;-81
2023/06/30 03:21:11;;;;;;;12.73;11.30;;;22.50;79.30;;;;;;4975027;28;20439;-81
2023/06/30 03:23:40;;;;;;;15.37;12.57;;;22.50;79.30;;;;;;4962722;28;20499;-81
2023/06/30 03:26:09;;;;;;;12.20;11.00;;;22.50;79.30;;;;;;4956905;28;20468;-81
2023/06/30 03:28:39;;;;;;;12.70;10.63;;;22.40;79.40;;;;;;4972751;28;20458;-82
2023/06/30 03:31:07;;;;;;;13.20;11.90;;;22.40;79.60;;;;;;4959793;28;20494;-81
2023/06/30 03:33:36;;;;;;;16.77;11.33;;;22.50;79.60;;;;;;4961950;28;20490;-81
2023/06/30 03:36:04;;;;;;;12.87;11.57;;;22.50;79.70;;;;;;4970918;28;20886;-81
2023/06/30 03:38:32;;;;;;;14.17;12.70;;;22.50;79.70;;;;;;4972064;28;20481;-82
2023/06/30 03:41:01;;;;;;;15.33;12.80;;;22.60;79.50;;;;;;4964520;28;21008;-82
2023/06/30 03:43:32;;;;;;;18.80;13.60;;;22.60;79.60;;;;;;4953775;29;20556;-81
2023/06/30 03:46:02;;;;;;;17.17;12.27;;;22.50;79.60;;;;;;4966778;28;20478;-81
2023/06/30 03:48:31;;;;;;;13.27;11.93;;;22.50;79.60;;;;;;4972452;28;21010;-81
2023/06/30 03:50:59;;;;;;;15.30;12.67;;;22.50;79.70;;;;;;4969103;28;20497;-82
2023/06/30 03:53:27;;;;;;;14.10;12.60;;;22.50;79.70;;;;;;4973007;28;20463;-81
2023/06/30 03:55:57;;;;;;;14.20;12.83;;;22.50;79.70;;;;;;4973773;28;20479;-82
2023/06/30 03:58:27;;;;;;;15.10;13.60;;;22.50;79.80;;;;;;4973929;28;20909;-81
2023/06/30 04:00:57;;;;;;;12.40;11.13;;;22.50;79.80;;;;;;4964718;28;20487;-81
2023/06/30 04:03:25;;;;;;;13.10;11.80;;;22.50;79.80;;;;;;4971491;28;20462;-81
2023/06/30 04:05:55;;;;;;;14.10;12.80;;;22.40;80.00;;;;;;4972506;28;20480;-81
2023/06/30 04:08:23;;;;;;;15.30;13.70;;;22.40;80.20;;;;;;4970685;28;21021;-81
2023/06/30 04:10:52;;;;;;;14.63;13.20;;;22.40;80.10;;;;;;4969986;28;20468;-83
2023/06/30 04:13:21;;;;;;;14.90;13.00;;;22.40;80.30;;;;;;4969169;28;20459;-81
2023/06/30 04:15:49;;;;;;;16.23;14.03;;;22.50;80.10;;;;;;4969924;28;20472;-81
2023/06/30 04:18:18;;;;;;;16.37;13.73;;;22.50;80.10;;;;;;4975502;28;20509;-82
2023/06/30 04:20:47;;;;;;;18.83;14.57;;;22.50;80.20;;;;;;4973455;28;20467;-81
2023/06/30 04:23:15;;;;;;;16.17;13.10;;;22.50;80.40;;;;;;4971723;28;20477;-81
2023/06/30 04:25:43;;;;;;;16.10;14.50;;;22.40;80.50;;;;;;4972612;28;20490;-81
2023/06/30 04:28:12;;;;;;;14.93;13.43;;;22.40;80.80;;;;;;4970361;28;20515;-81
2023/06/30 04:30:40;;;;;;;17.43;15.57;;;22.30;81.10;;;;;;4969929;28;20505;-83
2023/06/30 04:33:08;;;;;;;18.77;15.33;;;22.20;81.70;;;;;;4971726;28;20492;-82
2023/06/30 04:35:38;;;;;;;15.00;13.53;;;22.10;82.00;;;;;;4972738;28;20475;-81
2023/06/30 04:38:06;;;;;;;15.97;14.30;;;22.00;82.10;;;;;;4970541;28;20481;-81
2023/06/30 04:40:34;;;;;;;15.47;13.23;;;22.00;82.10;;;;;;4971444;28;20467;-81
2023/06/30 04:43:02;;;;;;;14.63;13.10;;;22.10;81.90;;;;;;4970015;28;20510;-82
2023/06/30 04:45:30;;;;;;;16.03;13.73;;;22.10;81.80;;;;;;4969981;28;20964;-81
2023/06/30 04:47:58;;;;;;;18.80;14.70;;;22.10;82.30;;;;;;4959383;28;21063;-80
2023/06/30 04:50:27;;;;;;;17.13;14.10;;;22.20;82.10;;;;;;4964004;28;20463;-80
2023/06/30 04:52:56;;;;;;;17.87;16.10;;;22.30;81.80;;;;;;4966586;28;20489;-80
2023/06/30 04:55:24;;;;;;;15.87;14.17;;;22.30;81.90;;;;;;4964627;28;20458;-79
2023/06/30 04:57:55;;;;;;;19.77;15.00;;;22.40;81.90;;;;;;4964288;28;21149;-81
2023/06/30 05:00:23;;;;;;;16.90;13.63;;;22.40;81.80;;;;;;4964022;28;21322;-80
2023/06/30 05:02:52;;;;;;;18.07;15.70;;;22.40;81.60;;;;;;4964499;28;20460;-80
2023/06/30 05:05:20;;;;;;;17.40;14.30;;;22.40;81.50;;;;;;4967125;28;20476;-83
2023/06/30 05:07:48;;;;;;;18.07;14.87;;;22.40;81.50;;;;;;4969839;28;20501;-81
2023/06/30 05:10:18;;;;;;;19.87;14.73;;;22.50;81.30;;;;;;4970119;28;20471;-82
2023/06/30 05:12:48;;;;;;;17.43;15.13;;;22.50;81.40;;;;;;4971697;28;20461;-80
2023/06/30 05:15:16;;;;;;;17.80;15.83;;;22.50;81.20;;;;;;4965334;28;21308;-82
2023/06/30 05:17:45;;;;;;;19.20;15.93;;;22.50;81.50;;;;;;4966348;28;20534;-80
2023/06/30 05:20:13;;;;;;;17.23;14.87;;;22.60;81.40;;;;;;4953336;28;20888;-82
2023/06/30 05:22:41;;;;;;;20.53;16.90;;;22.60;81.30;;;;;;4964850;28;20853;-82
2023/06/30 05:25:10;;;;;;;20.53;17.07;;;22.70;81.10;;;;;;4967354;28;20473;-84
2023/06/30 05:27:39;;;;;;;20.20;17.70;;;22.70;81.10;;;;;;4967672;28;20552;-81
2023/06/30 05:30:09;;;;;;;21.80;17.30;;;22.70;81.20;;;;;;4968700;28;21026;-82
2023/06/30 05:32:37;;;;;;;22.67;17.43;;;22.70;81.60;;;;;;4966564;28;20472;-81
2023/06/30 05:35:06;;;;;;;19.27;16.97;;;22.60;82.10;;;;;;4963172;28;20821;-80
2023/06/30 05:37:34;;;;;;;20.03;17.00;;;22.50;83.00;;;;;;4969384;28;20519;-81
2023/06/30 05:40:03;;;;;;;23.67;19.60;;;22.30;83.70;;;;;;4966435;28;20483;-84
2023/06/30 05:42:31;;;;;;;23.50;18.47;;;22.20;84.30;;;;;;4963674;28;20978;-81
2023/06/30 05:45:00;;;;;;;21.40;17.83;;;22.20;84.50;;;;;;4967014;28;20981;-81
2023/06/30 05:47:29;;;;;;;24.53;19.00;;;22.10;84.80;;;;;;4965484;28;20453;-81
2023/06/30 05:49:57;;;;;;;24.37;19.10;;;22.10;85.10;;;;;;4968615;28;20968;-81
2023/06/30 05:52:27;;;;;;;27.70;20.20;;;22.00;85.70;;;;;;4970099;28;20502;-83
2023/06/30 05:54:55;;;;;;;28.83;20.80;;;22.00;85.90;;;;;;4969810;28;20462;-81
2023/06/30 05:57:23;;;;;;;25.70;18.50;;;21.90;86.90;;;;;;4970215;28;20893;-82
2023/06/30 05:59:52;;;;;;;22.80;16.40;;;21.90;87.50;;;;;;4966472;28;20507;-82
2023/06/30 06:02:21;;;;;;;19.43;17.37;;;22.30;85.90;;;;;;4969287;28;20475;-82
2023/06/30 06:04:51;;;;;;;16.97;14.17;;;22.70;83.30;;;;;;4966151;28;20463;-82
2023/06/30 06:07:19;;;;;;;23.90;20.67;;;23.00;82.00;;;;;;4965733;28;20535;-82
2023/06/30 06:09:48;;;;;;;23.47;19.97;;;23.30;81.30;;;;;;4970716;28;20474;-82
2023/06/30 06:12:17;;;;;;;29.70;26.60;;;23.30;81.20;;;;;;4969482;28;20473;-80
2023/06/30 06:14:45;;;;;;;27.23;23.10;;;23.20;81.50;;;;;;4966993;28;20469;-79
2023/06/30 06:17:13;;;;;;;25.17;20.70;;;23.10;82.40;;;;;;4966140;28;20551;-81
2023/06/30 06:19:43;;;;;;;19.10;17.10;;;22.80;83.00;;;;;;4965024;28;20486;-79
2023/06/30 06:22:11;;;;;;;24.97;20.10;;;22.70;83.30;;;;;;4970621;28;20488;-80
2023/06/30 06:24:39;;;;;;;20.20;16.37;;;22.70;83.60;;;;;;4971597;28;20460;-81
2023/06/30 06:27:08;;;;;;;23.90;19.17;;;22.80;83.60;;;;;;4969063;28;20526;-81
2023/06/30 06:29:36;;;;;;;21.03;16.33;;;22.80;83.10;;;;;;4969341;28;20459;-82
2023/06/30 06:32:05;;;;;;;25.63;21.20;;;22.90;82.60;;;;;;4969748;28;20476;-82
2023/06/30 06:34:34;;;;;;;22.50;18.37;;;23.00;82.60;;;;;;4951534;28;21191;-81
2023/06/30 06:37:04;;;;;;;24.37;20.60;;;23.00;82.40;;;;;;4974985;28;20466;-82
2023/06/30 06:39:33;;;;;;;24.27;19.77;;;23.00;82.70;;;;;;4972151;28;20480;-82
2023/06/30 06:42:01;;;;;;;24.83;19.40;;;22.90;83.40;;;;;;4969612;28;20469;-82
2023/06/30 06:44:29;;;;;;;21.80;17.40;;;22.80;83.40;;;;;;4965928;28;20483;-82
2023/06/30 06:47:30;;;;;;;21.20;14.43;;;22.90;83.20;;;;;;4966184;28;20473;-82
2023/06/30 06:50:00;;;;;;;16.17;14.00;;;23.30;80.00;;;;;;4972385;28;20853;-82
2023/06/30 06:52:30;;;;;;;17.23;14.40;;;23.70;78.80;;;;;;4972938;28;21001;-83
2023/06/30 06:54:58;;;;;;;15.30;13.60;;;24.10;77.60;;;;;;4975492;28;20559;-82
2023/06/30 06:57:26;;;;;;;17.13;14.70;;;24.40;76.50;;;;;;4961772;28;20532;-80
2023/06/30 06:59:54;;;;;;;17.23;15.47;;;24.60;75.50;;;;;;4962862;28;20585;-80
2023/06/30 07:02:23;;;;;;;15.10;13.50;;;24.80;74.90;;;;;;4962687;28;20474;-82
2023/06/30 07:04:51;;;;;;;16.90;14.03;;;25.10;74.10;;;;;;4969046;28;20459;-81
2023/06/30 07:07:19;;;;;;;15.87;13.80;;;25.20;73.50;;;;;;4969044;28;20488;-84
2023/06/30 07:09:49;;;;;;;13.50;12.10;;;25.40;73.10;;;;;;4967300;28;20504;-83
2023/06/30 07:12:17;;;;;;;14.70;12.60;;;25.50;72.60;;;;;;4972047;28;20468;-83
2023/06/30 07:14:45;;;;;;;15.20;13.63;;;25.60;72.20;;;;;;4972665;28;20492;-83
2023/06/30 07:17:17;;;;;;;14.53;12.33;;;25.70;71.80;;;;;;4972031;28;20472;-82
2023/06/30 07:19:45;;;;;;;14.53;12.70;;;25.80;71.50;;;;;;4969647;28;20479;-79
2023/06/30 07:22:13;;;;;;;14.13;12.27;;;25.90;71.40;;;;;;4972511;28;20499;-79
2023/06/30 07:24:41;;;;;;;15.20;13.20;;;25.90;71.10;;;;;;4957444;28;20515;-78
2023/06/30 07:27:12;;;;;;;13.83;12.43;;;26.00;70.90;;;;;;4972088;28;20543;-79
2023/06/30 07:29:40;;;;;;;14.60;12.83;;;26.10;70.80;;;;;;4975946;28;20931;-79
2023/06/30 07:32:09;;;;;;;14.40;12.30;;;26.10;70.60;;;;;;4971626;28;20470;-81
2023/06/30 07:34:37;;;;;;;14.70;13.17;;;26.20;70.30;;;;;;4973049;28;20465;-77
2023/06/30 07:37:07;;;;;;;15.43;12.57;;;26.20;70.30;;;;;;4976687;28;21100;-79
2023/06/30 07:39:36;;;;;;;15.40;13.80;;;26.30;70.20;;;;;;4971514;28;20532;-80
2023/06/30 07:42:04;;;;;;;15.47;13.27;;;26.30;70.10;;;;;;4972561;28;20527;-80
2023/06/30 07:44:35;;;;;;;13.37;11.97;;;26.40;69.80;;;;;;4973004;28;20458;-80
2023/06/30 07:47:03;;;;;;;14.57;11.60;;;26.40;69.70;;;;;;4971929;28;20461;-80
2023/06/30 07:49:32;;;;;;;15.07;13.30;;;26.40;69.60;;;;;;4969410;28;20478;-79
2023/06/30 07:52:00;;;;;;;13.43;11.77;;;26.40;69.50;;;;;;4973297;28;20555;-82
2023/06/30 07:54:28;;;;;;;16.20;12.70;;;26.50;69.40;;;;;;4978593;28;20464;-79
2023/06/30 07:56:56;;;;;;;15.80;12.90;;;26.50;69.30;;;;;;4970516;28;20462;-80
2023/06/30 07:59:25;;;;;;;18.33;13.00;;;26.60;69.20;;;;;;4970751;28;20475;-83
2023/06/30 08:01:54;;;;;;;15.33;12.73;;;26.60;69.10;;;;;;4971486;28;20474;-80
2023/06/30 08:04:22;;;;;;;14.23;12.80;;;26.60;69.10;;;;;;4976639;28;21093;-86
2023/06/30 08:06:51;;;;;;;15.00;13.20;;;26.60;68.90;;;;;;4982723;28;20545;-88
2023/06/30 08:09:19;;;;;;;12.67;11.40;;;26.70;68.70;;;;;;4972294;28;20474;-81
2023/06/30 08:11:47;;;;;;;13.97;12.50;;;26.70;68.60;;;;;;4976866;28;20465;-84
2023/06/30 08:14:16;;;;;;;13.20;11.80;;;26.70;68.60;;;;;;4973551;28;20500;-82
2023/06/30 08:16:44;;;;;;;13.83;12.27;;;26.70;68.50;;;;;;4973679;28;20462;-82
2023/06/30 08:19:13;;;;;;;13.70;12.20;;;26.80;68.70;;;;;;4971368;28;20468;-83
2023/06/30 08:22:02;;;;;;;13.83;12.40;;;26.80;68.50;;;;;;4971395;28;20481;-82
2023/06/30 08:24:30;;;;;;;13.70;12.27;;;26.80;68.40;;;;;;4971537;28;20469;-83
2023/06/30 08:26:58;;;;;;;13.80;12.23;;;26.80;68.30;;;;;;4972644;28;20474;-82
2023/06/30 08:29:27;;;;;;;13.73;12.10;;;26.90;68.20;;;;;;4971170;28;20515;-80
2023/06/30 08:31:55;;;;;;;14.33;12.83;;;26.90;68.10;;;;;;4966828;28;20593;-81
2023/06/30 08:34:26;;;;;;;15.53;12.70;;;26.90;68.00;;;;;;4973889;28;20466;-84
2023/06/30 08:36:54;;;;;;;13.63;12.00;;;26.90;68.00;;;;;;4972417;28;20470;-80
2023/06/30 08:39:23;;;;;;;14.00;12.53;;;27.00;67.80;;;;;;4970154;28;20524;-83
2023/06/30 08:41:54;;;;;;;13.33;11.47;;;27.00;67.80;;;;;;4974624;28;20489;-83
2023/06/30 08:44:25;;;;;;;13.57;12.13;;;27.00;67.70;;;;;;4969204;28;20973;-83
2023/06/30 08:46:55;;;;;;;15.63;12.53;;;27.00;67.60;;;;;;4970896;28;20470;-86
2023/06/30 08:49:25;;;;;;;13.13;11.73;;;27.00;67.60;;;;;;4971932;28;20464;-84
2023/06/30 08:51:56;;;;;;;13.80;12.40;;;27.00;67.60;;;;;;4974828;28;20474;-86
2023/06/30 08:54:25;;;;;;;17.17;13.00;;;27.10;67.50;;;;;;4971966;28;20525;-88
2023/06/30 08:56:54;;;;;;;13.00;11.67;;;27.10;67.40;;;;;;4975025;28;20495;-84
2023/06/30 08:59:26;;;;;;;13.40;12.00;;;27.10;67.30;;;;;;4974806;28;20468;-85
2023/06/30 09:01:57;;;;;;;13.33;11.37;;;27.10;67.30;;;;;;4970890;28;20477;-83
2023/06/30 09:04:28;;;;;;;12.37;11.17;;;27.10;67.30;;;;;;4976948;28;21014;-84
2023/06/30 09:06:58;;;;;;;13.40;12.00;;;27.20;67.30;;;;;;4969012;28;21072;-85
2023/06/30 09:09:32;;;;;;;13.23;10.70;;;27.20;67.20;;;;;;4972450;28;20495;-85
2023/06/30 09:12:00;;;;;;;11.63;10.43;;;27.20;67.20;;;;;;4967524;28;21033;-83
2023/06/30 09:14:33;;;;;;;11.40;10.20;;;27.20;67.10;;;;;;4970367;28;20468;-82
2023/06/30 09:17:01;;;;;;;13.97;11.53;;;27.20;67.20;;;;;;4969042;28;20457;-81
2023/06/30 09:19:31;;;;;;;11.87;10.43;;;27.20;67.20;;;;;;4966515;28;20500;-83
2023/06/30 09:22:00;;;;;;;11.10;10.07;;;27.20;67.20;;;;;;4969007;28;21214;-83
2023/06/30 09:24:49;;;;;;;12.83;11.53;;;27.20;67.10;;;;;;4967869;28;20552;-84
2023/06/30 09:27:18;;;;;;;11.97;10.73;;;27.30;67.10;;;;;;4967854;28;20470;-83
2023/06/30 09:29:54;;;;;;;12.70;11.50;;;27.30;67.20;;;;;;4970052;28;20519;-83
2023/06/30 09:32:29;;;;;;;12.50;11.13;;;27.30;67.00;;;;;;4948594;28;20830;-84
2023/06/30 09:35:05;;;;;;;11.27;10.13;;;27.30;67.00;;;;;;4963626;28;20487;-87
2023/06/30 09:37:41;;;;;;;11.80;10.60;;;27.30;67.00;;;;;;4967622;28;20467;-87
2023/06/30 09:40:12;;;;;;;11.60;9.03;;;27.30;67.20;;;;;;4971511;28;20467;-87
2023/06/30 09:42:42;;;;;;;12.40;11.17;;;27.30;67.10;;;;;;4977034;28;20466;-86
2023/06/30 09:45:12;;;;;;;10.70;9.70;;;27.30;67.10;;;;;;4967173;28;20467;-86
2023/06/30 09:47:41;;;;;;;13.10;12.00;;;27.30;67.00;;;;;;4969747;28;20560;-85
2023/06/30 09:50:11;;;;;;;12.30;10.73;;;27.30;66.90;;;;;;4975536;28;20474;-87
2023/06/30 09:52:39;;;;;;;11.47;10.37;;;27.30;67.00;;;;;;4967484;28;21316;-85
2023/06/30 09:55:10;;;;;;;12.40;11.20;;;27.40;67.00;;;;;;4955767;28;20475;-86
2023/06/30 09:57:39;;;;;;;11.80;10.60;;;27.40;67.00;;;;;;4969905;28;21031;-85
2023/06/30 10:00:09;;;;;;;12.67;11.13;;;27.40;66.90;;;;;;4969686;28;20508;-89
2023/06/30 10:03:05;;;;;;;10.63;9.10;;;27.40;66.90;;;;;;4973309;28;20953;-86
2023/06/30 10:05:34;;;;;;;10.70;9.63;;;27.40;66.80;;;;;;4969196;28;20549;-86
2023/06/30 10:08:03;;;;;;;12.30;10.50;;;27.40;66.60;;;;;;4951140;28;20583;-85
2023/06/30 10:10:32;;;;;;;12.03;10.40;;;27.40;66.70;;;;;;4969882;28;20569;-82
2023/06/30 10:13:02;;;;;;;15.47;10.70;;;27.40;66.90;;;;;;4965620;28;20824;-82
2023/06/30 10:15:31;;;;;;;11.23;10.13;;;27.40;66.70;;;;;;4970527;28;20465;-82
2023/06/30 10:18:00;;;;;;;12.30;11.00;;;27.40;66.50;;;;;;4968508;28;20488;-83
2023/06/30 10:20:30;;;;;;;11.87;10.27;;;27.40;66.40;;;;;;4973378;28;20506;-83
2023/06/30 10:23:18;;;;;;;11.37;10.23;;;27.40;66.40;;;;;;4971703;28;20468;-83
2023/06/30 10:25:46;;;;;;;12.67;10.47;;;27.40;66.30;;;;;;4973953;28;20554;-83
2023/06/30 10:28:15;;;;;;;11.80;10.60;;;27.40;66.30;;;;;;4973580;28;20491;-82
2023/06/30 10:30:44;;;;;;;11.40;9.50;;;27.40;66.20;;;;;;4970375;28;20574;-82
2023/06/30 10:33:12;;;;;;;12.30;10.57;;;27.40;66.20;;;;;;4970298;28;20497;-81
2023/06/30 10:35:42;;;;;;;13.70;10.63;;;27.40;66.20;;;;;;4973728;28;20438;-82
2023/06/30 10:38:12;;;;;;;14.20;11.00;;;27.40;66.30;;;;;;4971394;28;20458;-82
2023/06/30 10:40:42;;;;;;;12.30;11.00;;;27.40;66.30;;;;;;4973168;28;20462;-81
2023/06/30 10:43:13;;;;;;;13.80;12.07;;;27.50;66.30;;;;;;4970578;28;20564;-80
2023/06/30 10:46:06;;;;;;;15.43;13.20;;;27.40;66.40;;;;;;4969970;28;20459;-80
2023/06/30 10:48:40;;;;;;;15.03;12.00;;;27.50;66.40;;;;;;4970765;28;20464;-80
2023/06/30 10:51:12;;;;;;;16.07;12.27;;;27.50;66.40;;;;;;4970988;28;20800;-81
2023/06/30 10:53:44;;;;;;;15.07;11.87;;;27.50;66.40;;;;;;4967150;28;20973;-80
2023/06/30 10:56:14;;;;;;;14.97;12.20;;;27.50;66.50;;;;;;4973012;28;20512;-80
2023/06/30 10:58:43;;;;;;;15.17;12.10;;;27.40;66.60;;;;;;4970813;28;20473;-82
2023/06/30 11:01:15;;;;;;;16.20;11.60;;;27.50;66.60;;;;;;4965560;28;20482;-82
2023/06/30 11:04:12;;;;;;;13.83;11.33;;;27.40;66.90;;;;;;4970924;28;20456;-81
2023/06/30 11:06:46;;;;;;;16.43;13.33;;;27.50;67.50;;;;;;4968978;28;20467;-80
2023/06/30 11:09:14;;;;;;;15.80;11.83;;;27.50;68.00;;;;;;4969851;28;20463;-81
2023/06/30 11:11:51;;;;;;;13.30;11.70;;;27.50;68.10;;;;;;4971278;28;20468;-81
2023/06/30 11:14:32;;;;;;;15.80;14.17;;;27.60;68.20;;;;;;4971769;28;20464;-81
2023/06/30 11:17:03;;;;;;;21.00;13.40;;;27.60;68.00;;;;;;4969267;28;20526;-82
2023/06/30 11:19:31;;;;;;;15.17;12.60;;;27.60;68.00;;;;;;4973606;28;20464;-80
2023/06/30 11:22:21;;;;;;;13.90;12.47;;;27.70;67.90;;;;;;4971351;28;20976;-80
2023/06/30 11:24:50;;;;;;;15.13;11.73;;;27.70;67.80;;;;;;4968656;28;20490;-84
2023/06/30 11:27:19;;;;;;;17.90;13.77;;;27.70;67.70;;;;;;4971370;28;20461;-81
2023/06/30 11:29:50;;;;;;;15.90;12.83;;;27.80;67.40;;;;;;4958798;28;20469;-81
2023/06/30 11:32:19;;;;;;;14.17;11.93;;;27.80;67.20;;;;;;4958694;28;20567;-81
2023/06/30 11:34:47;;;;;;;16.03;12.90;;;27.90;66.90;;;;;;4971503;28;20459;-81
2023/06/30 11:37:15;;;;;;;17.90;12.80;;;27.90;66.80;;;;;;4972105;28;20472;-81
2023/06/30 11:39:51;;;;;;;16.83;12.60;;;27.90;66.70;;;;;;4970401;28;20468;-82
2023/06/30 11:42:21;;;;;;;20.33;13.57;;;27.90;66.60;;;;;;4970193;28;20479;-82
2023/06/30 11:44:50;;;;;;;12.60;11.30;;;28.00;66.50;;;;;;4961060;28;20457;-82
2023/06/30 11:47:19;;;;;;;15.10;12.33;;;28.00;66.50;;;;;;4965566;28;20491;-82
2023/06/30 11:49:51;;;;;;;15.40;11.83;;;28.00;66.40;;;;;;4973329;28;20475;-82
2023/06/30 11:52:20;;;;;;;14.33;11.97;;;28.00;66.30;;;;;;4970972;28;20463;-82
2023/06/30 11:54:48;;;;;;;13.70;11.50;;;28.00;66.20;;;;;;4971250;28;20465;-82
2023/06/30 11:57:16;;;;;;;13.43;12.00;;;28.00;66.10;;;;;;4969305;28;20468;-82
2023/06/30 11:59:48;;;;;;;13.37;11.97;;;28.00;65.90;;;;;;4970021;28;20528;-82
2023/06/30 12:02:17;;;;;;;14.50;11.40;;;28.10;65.90;;;;;;4957166;28;20882;-82
2023/06/30 12:04:48;;;;;;;12.70;10.70;;;28.10;65.80;;;;;;4971725;28;20463;-82
2023/06/30 12:07:17;;;;;;;13.50;12.10;;;28.10;65.60;;;;;;4971197;28;20498;-83
2023/06/30 12:09:59;;;;;;;13.23;11.57;;;28.10;65.60;;;;;;4970525;28;20557;-82
2023/06/30 12:12:28;;;;;;;12.73;11.47;;;28.10;65.60;;;;;;4973912;28;20949;-81
2023/06/30 12:14:57;;;;;;;13.67;11.83;;;28.20;65.40;;;;;;4970446;28;20496;-81
2023/06/30 12:17:28;;;;;;;13.67;11.30;;;28.20;65.30;;;;;;4971430;28;21045;-82
2023/06/30 12:19:57;;;;;;;13.30;11.90;;;28.20;65.20;;;;;;4973712;28;20494;-83
2023/06/30 12:22:27;;;;;;;12.73;11.43;;;28.30;65.20;;;;;;4971419;28;20471;-82
2023/06/30 12:24:56;;;;;;;14.63;12.20;;;28.40;65.10;;;;;;4971115;28;21160;-82
2023/06/30 12:27:26;;;;;;;14.57;12.63;;;28.50;64.70;;;;;;4969458;28;20523;-83
2023/06/30 12:29:54;;;;;;;15.30;12.80;;;28.50;64.50;;;;;;4971587;28;20521;-82
2023/06/30 12:32:27;;;;;;;12.10;10.43;;;28.50;64.40;;;;;;4966080;28;20985;-82
2023/06/30 12:34:59;;;;;;;13.00;10.90;;;28.40;64.60;;;;;;4966771;28;20440;-82
2023/06/30 12:37:30;;;;;;;13.30;11.00;;;28.30;64.80;;;;;;4959029;28;20460;-82
2023/06/30 12:39:59;;;;;;;13.43;11.83;;;28.30;64.90;;;;;;4969020;28;20477;-82
2023/06/30 12:42:29;;;;;;;12.30;10.53;;;28.20;65.10;;;;;;4959462;28;20500;-83